Billings Logan International Airport
KBIL : now visible

Airfield :











YOU CAN JOIN US ON...

 
LOGIN :

Register | Disclaimer

   EN    FR    IT 

 









Legend :    VFR   Marginal VFR   IFR   Intensive IFR   Very Intensive IFR
Visi :
Ceiling :
>= 8 km
>= 3000ft
5 to 8 km
1000 to 3000 ft
1500m to 5 km
500 to 1000 ft
800 to 1500m
200 to 500 ft
< 800m
< 200 ft
Symbols :   Thunderstorms  Fog  Heavy snow  Heavy precipitations  Wind > 20 kt






- Airport Elevation : 3652 ft
- IATA code : BIL


KBIL - Billings Logan International

CURRENT METAR :
  • 190953Z 33013KT 10SM FEW100 16/02 A2974 RMK AO2 SLP034 T01610017

EXPIRED METARs :
  • 190853Z 33016KT 10SM FEW110 17/01 A2974 RMK AO2 WSHFT 0806 SLP033 T01720011 53021
  • 190826Z 33013KT 10SM FEW110 18/01 A2975 RMK AO2 WSHFT 0806 T01780011
  • 190753Z 25010KT 10SM CLR 21/03 A2971 RMK AO2 SLP022 T02060033

TAF KBIL
Valid from the 19 at 06:00 until the 20 at 06:00 UTC


190534Z 1906/2006 24011G20KT P6SM SCT230
FM190700 31015G25KT P6SM SCT120
FM190900 27011KT P6SM SCT100
FM191300 30015G25KT P6SM VCSH SCT050 BKN100
FM191700 32014G22KT P6SM -SHRA SCT025 BKN050
FM192300 29010KT P6SM VCSH BKN050
KZLC FIR / North America



MET'MAP, your aeronautical weather chart ! - Copyright ORBIFLY December 2007 - Disclaimer

ORBIFLY MET'MAP TEAM :

Programming & Development : Alexandra Zaïnal
Concept & original design : Baudouin d'Aumeries
Assistance for programming : Marc-Olivier Méhu
Technical & hardware support : Manuel Goepfert

Contact : metmap@orbifly.com




SOURCES & CREDITS :

   NOAA       Earth
Advisory